• Join FlightAware (Why Join?)
  • Login
  • US Flag 
07:56PM EST


 

Airport Tracker/Info


-or-


 

Live Flight TrackerFlight Track Log ✈ AWI3650 ✈ 12-Apr-2013 ✈ KPHL - KBDL

Flight Track Log - Related Links

Times and Time Zones

All times are in EDT time to prevent confusion due to time zone crossing. See the AWI3650 flight status page for this flight to view local times or setup timezone preferences in your user account.

Time Position Orientation Groundspeed Altitude Reporting Facility
EDT Latitude Longitude Course Direction KTS MPH feet Rate Location/Type
08:24PM 39.8833 -75.2167 37° Northeast 149 171 800  Level Philadelphia TRACON
08:24PM 39.8728 -75.2078 147° Southeast 162 186 1,500 2,000 Climbing FAA TRACON SMA TRACON (SMA)
08:24PM 39.8689 -75.1853 103° East 168 193 2,000 1,200 Climbing FAA TRACON SMA TRACON (SMA)
08:25PM 39.8664 -75.1603 97° East 221 254 2,300 900 Climbing FAA TRACON SMA TRACON (SMA)
08:25PM 39.8639 -75.1356 97° East 238 274 2,600 1,350 Climbing FAA TRACON SMA TRACON (SMA)
08:25PM 39.8614 -75.1056 96° East 263 303 3,200 2,400 Climbing FAA TRACON SMA TRACON (SMA)
08:26PM 39.8567 -75.0689 100° East 271 312 4,200 2,850 Climbing FAA TRACON SMA TRACON (SMA)
08:26PM 39.8511 -75.0375 103° East 279 321 5,100 3,000 Climbing FAA TRACON SMA TRACON (SMA)
08:26PM 39.8458 -75.0028 101° East 282 325 6,200 2,700 Climbing FAA TRACON SMA TRACON (SMA)
08:27PM 39.8061 -74.8135 105° East  Level FlightAware Approximate
08:27PM 39.8389 -74.9686 105° East 282 325 6,900  Level FAA TRACON SMA TRACON (SMA)
08:27PM 39.8336 -74.9364 102° East 291 335 7,500 2,049 Climbing FAA TRACON SMA TRACON (SMA)
08:27PM 39.8261 -74.8950 103° East 310 357 8,300 2,250 Climbing FAA TRACON SMA TRACON (SMA)
08:28PM 39.7848 -74.7074 105° East  Level FlightAware Approximate
08:28PM 39.8200 -74.8606 103° East 314 361 9,000  Level FAA TRACON SMA TRACON (SMA)
08:28PM 39.8136 -74.8244 103° East 321 369 9,700 2,100 Climbing FAA TRACON SMA TRACON (SMA)
08:28PM 39.8072 -74.7889 103° East 326 375 10,400 2,100 Climbing FAA TRACON SMA TRACON (SMA)
08:29PM 39.8456 -74.6378 37° Northeast  Level FlightAware Approximate
08:29PM 39.8025 -74.7436 98° East 332 382 11,100  Level FAA TRACON SMA TRACON (SMA)
08:29PM 39.8122 -74.7053 72° East 348 400 11,600 1,800 Climbing FAA TRACON SMA TRACON (SMA)
08:29PM 39.8336 -74.6769 45° Northeast 350 403 12,300 2,049 Climbing FAA TRACON SMA TRACON (SMA)
08:30PM 39.8633 -74.6486 36° Northeast 360 414 13,000 2,100 Climbing FAA TRACON SMA TRACON (SMA)
08:30PM 39.8889 -74.6239 37° Northeast 358 412 13,700 2,000 Climbing FAA TRACON SMA TRACON (SMA)
08:30PM 39.9131 -74.5997 37° Northeast 357 411 14,300 1,950 Climbing FAA TRACON SMA TRACON (SMA)
08:31PM 39.9436 -74.5692 37° Northeast 360 414 15,000 1,650 Climbing FAA TRACON SMA TRACON (SMA)
08:31PM 39.9681 -74.5450 37° Northeast 361 415 15,400 1,500 Climbing FAA TRACON SMA TRACON (SMA)
08:31PM 40.0000 -74.5136 37° Northeast 368 423 16,000 1,350 Climbing FAA TRACON SMA TRACON (SMA)
08:32PM 40.0247 -74.4886 38° Northeast 377 434 16,300 1,350 Climbing FAA TRACON SMA TRACON (SMA)
08:32PM 40.0522 -74.4619 37° Northeast 381 438 16,900 1,610 Climbing FAA TRACON SMA TRACON (SMA)
08:32PM 40.0789 -74.4364 36° Northeast 385 443 17,400 2,000 Climbing FAA TRACON SMA TRACON (SMA)
08:33PM 40.1122 -74.4028 38° Northeast 389 448 18,200 1,925 Climbing FAA TRACON SMA TRACON (SMA)
08:33PM 40.1569 -74.3586 37° Northeast 382 440 19,100 1,453 Climbing New York Center
08:34PM 40.2369 -74.2647 42° Northeast 387 445 20,500 950 Climbing New York Center
08:35PM 40.3072 -74.1431 53° Northeast 394 453 21,000 188 Climbing New York Center
08:37PM 40.4336 -73.9286 52° Northeast 430 495 21,000  Level Boston Center
08:38PM 40.5125 -73.7939 52° Northeast 441 507 21,000  Level Boston Center
08:39PM 40.5806 -73.6697 54° Northeast 461 531 21,000 -303 Level Boston Center
08:40PM 40.6611 -73.5317 52° Northeast 466 536 20,400 -807 Descending Boston Center
08:41PM 40.7375 -73.3906 54° Northeast 471 542 19,400 -732 Descending Boston Center
08:42PM 40.8364 -73.2575 45° Northeast 465 535 18,900 -1,100 Descending Boston Center
08:43PM 40.9331 -73.1433 42° Northeast 460 529 17,200 -1,525 Descending Boston Center
08:44PM 41.0108 -73.0508 42° Northeast 460 529 15,900 -1,475 Descending Boston Center
08:45PM 41.1239 -72.9194 41° Northeast 455 524 14,200 -1,588 Descending Boston Center
08:46PM 41.1825 -72.8539 40° Northeast 421 484 13,200 -1,831 Descending Boston Center
08:46PM 41.2097 -72.8181 45° Northeast 440 506 12,400 -1,818 Descending Boston Center
08:47PM 41.2767 -72.7383 42° Northeast 391 450 11,200 -771 Descending Boston Center
08:48PM 41.3706 -72.7444 357° North 329 379 11,000 -1,190 Descending Boston Center
08:49PM 41.4392 -72.8000 329° Northwest 287 330 8,800 -2,150 Descending Boston Center
08:50PM 41.5056 -72.8558 328° Northwest 280 322 6,700 -2,081 Descending Boston Center
08:51PM 41.5806 -72.8675 353° North 274 315 4,500 -1,721 Descending Boston Center
08:52PM 41.6619 -72.8681 360° North 259 298 3,000 -714 Descending Boston Center
08:53PM 41.7203 -72.8711 358° North 217 250 3,000  Level Boston Center
08:54PM 41.7806 -72.8717 360° North 210 242 3,000  Level Boston Center
08:55PM 41.8244 -72.8383 30° Northeast 197 227 3,000  Level Boston Center